Time;durP1;ratioP1;P1;durP2;ratioP2;P2;SDS_P1;SDS_P2;PMS_P1;PMS_P2;Temp;Humidity;BMP_temperature;BMP_pressure;BME280_temperature;BME280_humidity;BME280_pressure;Samples;Min_cycle;Max_cycle;Signal;HPM_P1;HPM_P2
2023/03/14 00:01:20;;;;;;;13.52;3.85;;;;;;;;;;4974383;28;20058;-78
2023/03/14 00:03:47;;;;;;;20.20;4.53;;;;;;;;;;4977909;28;20050;-79
2023/03/14 00:06:13;;;;;;;19.65;4.63;;;;;;;;;;4977252;28;20449;-79
2023/03/14 00:08:40;;;;;;;17.08;4.32;;;;;;;;;;4976830;28;20046;-80
2023/03/14 00:11:07;;;;;;;19.67;4.80;;;;;;;;;;4976258;28;20089;-79
2023/03/14 00:13:33;;;;;;;18.63;5.15;;;;;;;;;;4979662;28;20051;-79
2023/03/14 00:16:03;;;;;;;19.50;4.60;;;;;;;;;;4979255;28;20073;-79
2023/03/14 00:18:29;;;;;;;19.08;4.43;;;;;;;;;;4979493;28;20062;-79
2023/03/14 00:20:57;;;;;;;21.52;4.22;;;;;;;;;;4978665;28;20054;-79
2023/03/14 00:23:23;;;;;;;16.55;3.95;;;;;;;;;;4978847;28;20050;-79
2023/03/14 00:25:49;;;;;;;19.45;4.55;;;;;;;;;;4980855;28;20043;-79
2023/03/14 00:28:15;;;;;;;14.73;4.07;;;;;;;;;;4980790;28;20074;-79
2023/03/14 00:30:41;;;;;;;13.02;4.22;;;;;;;;;;4979981;28;20055;-79
2023/03/14 00:33:07;;;;;;;15.50;3.88;;;;;;;;;;4980268;28;20046;-79
2023/03/14 00:35:33;;;;;;;16.38;4.80;;;;;;;;;;4978904;28;20039;-78
2023/03/14 00:37:59;;;;;;;14.60;3.58;;;;;;;;;;4979396;28;20070;-79
2023/03/14 00:40:25;;;;;;;14.80;3.80;;;;;;;;;;4986105;28;20105;-79
2023/03/14 00:42:51;;;;;;;17.65;3.72;;;;;;;;;;4987178;28;20035;-79
2023/03/14 00:45:17;;;;;;;11.88;3.05;;;;;;;;;;4982036;28;20078;-79
2023/03/14 00:47:45;;;;;;;13.73;3.70;;;;;;;;;;4970624;28;20046;-79
2023/03/14 00:50:11;;;;;;;15.43;3.90;;;;;;;;;;4986649;28;20501;-79
2023/03/14 00:52:37;;;;;;;13.07;3.63;;;;;;;;;;4987851;28;20098;-79
2023/03/14 00:55:04;;;;;;;12.35;3.65;;;;;;;;;;4986006;28;20057;-79
2023/03/14 00:57:30;;;;;;;12.10;3.25;;;;;;;;;;4986346;28;20043;-79
2023/03/14 00:59:56;;;;;;;13.98;3.63;;;;;;;;;;4986341;28;20493;-79
2023/03/14 01:02:22;;;;;;;11.98;3.75;;;;;;;;;;4986479;28;20497;-79
2023/03/14 01:04:48;;;;;;;14.63;3.75;;;;;;;;;;4985950;28;20043;-79
2023/03/14 01:07:15;;;;;;;14.63;3.83;;;;;;;;;;4977318;28;20078;-79
2023/03/14 01:09:41;;;;;;;13.30;4.22;;;;;;;;;;4979574;28;20043;-79
2023/03/14 01:12:07;;;;;;;16.40;4.20;;;;;;;;;;4987093;28;20167;-79
2023/03/14 01:14:33;;;;;;;15.02;4.00;;;;;;;;;;4985775;28;20054;-79
2023/03/14 01:17:00;;;;;;;15.70;4.22;;;;;;;;;;4986556;28;20050;-79
2023/03/14 01:19:29;;;;;;;16.58;4.10;;;;;;;;;;4970147;28;20059;-79
2023/03/14 01:21:56;;;;;;;18.73;3.40;;;;;;;;;;4977067;28;20050;-79
2023/03/14 01:24:22;;;;;;;14.48;3.88;;;;;;;;;;4976297;28;20042;-78
2023/03/14 01:26:48;;;;;;;13.88;3.75;;;;;;;;;;4976687;28;20121;-78
2023/03/14 01:29:14;;;;;;;19.67;4.35;;;;;;;;;;4976345;28;20050;-78
2023/03/14 01:31:40;;;;;;;14.95;3.55;;;;;;;;;;4987930;28;20106;-78
2023/03/14 01:34:06;;;;;;;13.15;3.22;;;;;;;;;;4957626;28;20043;-78
2023/03/14 01:36:32;;;;;;;15.57;4.03;;;;;;;;;;4967492;28;20070;-78
2023/03/14 01:38:58;;;;;;;20.95;5.10;;;;;;;;;;4976445;28;20039;-78
2023/03/14 01:41:25;;;;;;;16.30;4.10;;;;;;;;;;4977209;28;20043;-78
2023/03/14 01:43:51;;;;;;;14.75;4.13;;;;;;;;;;4977511;28;20126;-78
2023/03/14 01:46:32;;;;;;;15.63;3.80;;;;;;;;;;4976200;28;20035;-78
2023/03/14 01:49:07;;;;;;;19.30;3.85;;;;;;;;;;4976007;28;20429;-78
2023/03/14 01:51:34;;;;;;;15.40;3.67;;;;;;;;;;4975717;28;20098;-79
2023/03/14 01:54:03;;;;;;;18.08;3.58;;;;;;;;;;4976080;28;20097;-78
2023/03/14 01:56:29;;;;;;;16.38;3.78;;;;;;;;;;4976240;28;20131;-78
2023/03/14 01:58:55;;;;;;;16.63;4.03;;;;;;;;;;4976463;28;20140;-79
2023/03/14 02:01:24;;;;;;;17.80;4.75;;;;;;;;;;4975950;28;20049;-79
2023/03/14 02:03:55;;;;;;;18.80;4.35;;;;;;;;;;4975690;28;20548;-79
2023/03/14 02:06:23;;;;;;;14.40;3.97;;;;;;;;;;4975894;28;20047;-79
2023/03/14 02:08:49;;;;;;;19.42;3.92;;;;;;;;;;4975558;28;20394;-79
2023/03/14 02:11:16;;;;;;;15.95;3.50;;;;;;;;;;4975711;28;20046;-78
2023/03/14 02:13:42;;;;;;;17.85;3.90;;;;;;;;;;4976264;28;20047;-78
2023/03/14 02:16:09;;;;;;;14.88;3.97;;;;;;;;;;4976220;28;20121;-78
2023/03/14 02:18:35;;;;;;;14.77;4.63;;;;;;;;;;4971665;28;20122;-79
2023/03/14 02:21:05;;;;;;;13.93;4.15;;;;;;;;;;4960282;28;20383;-79
2023/03/14 02:23:31;;;;;;;12.35;3.78;;;;;;;;;;4970824;28;20039;-79
2023/03/14 02:26:16;;;;;;;18.73;4.18;;;;;;;;;;4975598;28;20066;-79
2023/03/14 02:28:42;;;;;;;22.05;4.22;;;;;;;;;;4975628;28;20093;-79
2023/03/14 02:31:08;;;;;;;17.88;4.20;;;;;;;;;;4979806;28;20046;-79
2023/03/14 02:33:36;;;;;;;24.02;5.57;;;;;;;;;;4984517;28;20054;-79
2023/03/14 02:36:05;;;;;;;17.45;4.80;;;;;;;;;;4984008;28;20046;-79
2023/03/14 02:38:43;;;;;;;16.38;4.30;;;;;;;;;;4980509;28;20042;-79
2023/03/14 02:41:09;;;;;;;19.15;4.57;;;;;;;;;;4983788;28;20077;-79
2023/03/14 02:43:35;;;;;;;13.90;3.70;;;;;;;;;;4984495;28;20485;-79
2023/03/14 02:46:02;;;;;;;16.73;4.25;;;;;;;;;;4985199;28;20375;-79
2023/03/14 02:48:35;;;;;;;20.08;4.55;;;;;;;;;;4983364;28;20046;-79
2023/03/14 02:51:02;;;;;;;25.40;4.88;;;;;;;;;;4986754;28;20042;-79
2023/03/14 02:53:32;;;;;;;16.83;4.95;;;;;;;;;;4983719;28;20047;-79
2023/03/14 02:55:59;;;;;;;24.38;4.95;;;;;;;;;;4976861;28;20046;-79
2023/03/14 02:58:26;;;;;;;16.23;4.03;;;;;;;;;;4975305;28;20043;-78
2023/03/14 03:00:52;;;;;;;22.27;5.50;;;;;;;;;;4975112;28;20047;-76
2023/03/14 03:03:19;;;;;;;16.92;5.03;;;;;;;;;;4975105;28;20042;-75
2023/03/14 03:05:48;;;;;;;18.75;4.55;;;;;;;;;;4975018;28;20136;-75
2023/03/14 03:08:14;;;;;;;21.45;4.53;;;;;;;;;;4975064;28;20069;-76
2023/03/14 03:10:41;;;;;;;17.98;4.80;;;;;;;;;;4975075;28;20466;-77
2023/03/14 03:13:07;;;;;;;17.00;5.25;;;;;;;;;;4974755;28;20047;-77
2023/03/14 03:15:33;;;;;;;25.15;5.07;;;;;;;;;;4974584;28;20130;-77
2023/03/14 03:17:59;;;;;;;18.02;5.30;;;;;;;;;;4964742;28;20109;-76
2023/03/14 03:20:25;;;;;;;22.10;5.05;;;;;;;;;;4958734;28;20086;-76
2023/03/14 03:22:51;;;;;;;25.40;5.07;;;;;;;;;;4972132;28;20078;-78
2023/03/14 03:25:17;;;;;;;20.55;4.95;;;;;;;;;;4974806;28;20043;-77
2023/03/14 03:27:43;;;;;;;21.25;5.07;;;;;;;;;;4974652;28;20055;-77
2023/03/14 03:30:09;;;;;;;15.55;4.97;;;;;;;;;;4974517;28;20050;-77
2023/03/14 03:32:36;;;;;;;25.27;4.63;;;;;;;;;;4959726;28;20389;-78
2023/03/14 03:35:03;;;;;;;20.45;5.43;;;;;;;;;;4962145;28;20074;-78
2023/03/14 03:37:30;;;;;;;24.60;4.95;;;;;;;;;;4974239;28;20071;-78
2023/03/14 03:39:56;;;;;;;25.88;5.43;;;;;;;;;;4974701;28;20057;-78
2023/03/14 03:42:22;;;;;;;25.95;5.40;;;;;;;;;;4974314;28;20050;-78
2023/03/14 03:44:49;;;;;;;32.70;5.45;;;;;;;;;;4974738;28;20081;-78
2023/03/14 03:47:15;;;;;;;18.90;4.68;;;;;;;;;;5005741;28;20054;-78
2023/03/14 03:49:41;;;;;;;22.95;5.38;;;;;;;;;;4974370;28;20066;-78
2023/03/14 03:52:09;;;;;;;21.05;5.45;;;;;;;;;;4974019;28;20470;-79
2023/03/14 03:54:35;;;;;;;24.88;5.10;;;;;;;;;;4973297;28;20039;-78
2023/03/14 03:57:01;;;;;;;26.05;5.18;;;;;;;;;;4974845;28;20035;-78
2023/03/14 03:59:27;;;;;;;23.77;5.18;;;;;;;;;;4975715;28;20130;-79
2023/03/14 04:01:53;;;;;;;18.98;5.00;;;;;;;;;;4977861;28;20054;-79
2023/03/14 04:04:19;;;;;;;29.60;5.72;;;;;;;;;;4978320;28;20047;-78
2023/03/14 04:06:45;;;;;;;25.42;4.82;;;;;;;;;;4978115;28;20043;-78
2023/03/14 04:09:11;;;;;;;27.38;5.40;;;;;;;;;;4992961;28;20042;-78
2023/03/14 04:11:37;;;;;;;25.38;5.82;;;;;;;;;;4978376;28;20039;-79
2023/03/14 04:14:04;;;;;;;26.83;5.90;;;;;;;;;;4977648;28;20114;-78
2023/03/14 04:16:33;;;;;;;27.02;5.53;;;;;;;;;;4978060;28;20043;-78
2023/03/14 04:19:00;;;;;;;25.15;4.95;;;;;;;;;;4977728;28;20098;-78
2023/03/14 04:21:26;;;;;;;32.08;6.28;;;;;;;;;;4978096;28;20125;-78
2023/03/14 04:23:52;;;;;;;24.63;5.18;;;;;;;;;;4977827;28;20125;-78
2023/03/14 04:26:18;;;;;;;26.45;5.88;;;;;;;;;;4978390;28;20043;-78
2023/03/14 04:28:44;;;;;;;24.42;5.32;;;;;;;;;;4977819;28;20047;-78
2023/03/14 04:31:10;;;;;;;24.63;6.45;;;;;;;;;;4977904;28;20047;-77
2023/03/14 04:33:37;;;;;;;21.50;5.55;;;;;;;;;;4977476;28;20042;-76
2023/03/14 04:36:03;;;;;;;28.50;5.88;;;;;;;;;;4977127;28;20057;-75
2023/03/14 04:38:29;;;;;;;25.45;6.18;;;;;;;;;;4977094;28;20096;-76
2023/03/14 04:40:55;;;;;;;27.27;5.72;;;;;;;;;;4967085;28;20082;-77
2023/03/14 04:43:21;;;;;;;30.38;5.90;;;;;;;;;;4977093;28;20039;-76
2023/03/14 04:45:47;;;;;;;27.60;5.30;;;;;;;;;;4977142;28;20047;-76
2023/03/14 04:48:13;;;;;;;20.98;4.78;;;;;;;;;;4977802;28;20053;-75
2023/03/14 04:50:40;;;;;;;18.42;4.70;;;;;;;;;;4976975;28;20047;-75
2023/03/14 04:53:06;;;;;;;17.65;4.70;;;;;;;;;;4977191;28;20085;-76
2023/03/14 04:55:35;;;;;;;21.13;4.35;;;;;;;;;;4975228;28;20097;-76
2023/03/14 04:58:01;;;;;;;16.67;4.32;;;;;;;;;;4992218;28;20050;-75
2023/03/14 05:00:27;;;;;;;16.23;4.45;;;;;;;;;;4977220;28;20049;-75
2023/03/14 05:02:53;;;;;;;15.82;4.70;;;;;;;;;;4977081;28;20089;-75
2023/03/14 05:05:19;;;;;;;17.50;4.28;;;;;;;;;;4977109;28;20122;-75
2023/03/14 05:07:46;;;;;;;14.57;4.13;;;;;;;;;;4977374;28;20046;-75
2023/03/14 05:10:12;;;;;;;12.73;4.20;;;;;;;;;;4977604;28;20051;-75
2023/03/14 05:12:38;;;;;;;10.55;3.92;;;;;;;;;;4975195;28;20087;-76
2023/03/14 05:15:04;;;;;;;13.27;4.63;;;;;;;;;;4969142;28;20523;-76
2023/03/14 05:17:31;;;;;;;8.70;3.95;;;;;;;;;;4975712;28;20547;-76
2023/03/14 05:19:57;;;;;;;7.47;4.00;;;;;;;;;;4974932;28;20449;-76
2023/03/14 05:22:23;;;;;;;12.18;4.03;;;;;;;;;;4976826;28;20545;-75
2023/03/14 05:24:49;;;;;;;11.30;4.50;;;;;;;;;;4976727;28;20129;-76
2023/03/14 05:27:15;;;;;;;11.07;4.10;;;;;;;;;;4975642;28;20047;-76
2023/03/14 05:29:41;;;;;;;12.07;3.83;;;;;;;;;;4976748;28;20043;-76
2023/03/14 05:32:07;;;;;;;10.43;3.70;;;;;;;;;;4970391;28;20079;-76
2023/03/14 05:34:33;;;;;;;11.07;3.85;;;;;;;;;;4976558;28;20102;-76
2023/03/14 05:36:59;;;;;;;10.27;3.72;;;;;;;;;;4976025;28;20074;-76
2023/03/14 05:39:25;;;;;;;5.63;2.72;;;;;;;;;;4956322;28;20083;-77
2023/03/14 05:41:53;;;;;;;6.50;2.00;;;;;;;;;;4977129;28;20047;-76
2023/03/14 05:44:19;;;;;;;6.90;2.80;;;;;;;;;;4975063;28;20102;-77
2023/03/14 05:47:08;;;;;;;12.15;2.92;;;;;;;;;;4975695;28;20039;-76
2023/03/14 05:49:37;;;;;;;11.15;2.67;;;;;;;;;;4970101;28;20105;-76
2023/03/14 05:52:14;;;;;;;13.70;2.75;;;;;;;;;;4976463;28;20053;-76
2023/03/14 05:54:40;;;;;;;14.90;3.00;;;;;;;;;;4976342;28;20039;-77
2023/03/14 05:57:06;;;;;;;14.15;3.08;;;;;;;;;;4975858;28;20043;-77
2023/03/14 05:59:35;;;;;;;13.23;2.80;;;;;;;;;;4974524;28;20054;-76
2023/03/14 06:02:01;;;;;;;14.27;2.70;;;;;;;;;;4979539;28;20056;-76
2023/03/14 06:04:27;;;;;;;16.17;3.42;;;;;;;;;;4962445;28;20506;-76
2023/03/14 06:06:53;;;;;;;9.55;2.67;;;;;;;;;;4958910;28;20200;-76
2023/03/14 06:09:22;;;;;;;13.00;2.38;;;;;;;;;;4963043;28;20038;-76
2023/03/14 06:11:51;;;;;;;10.43;2.70;;;;;;;;;;4976231;28;20047;-77
2023/03/14 06:14:17;;;;;;;10.15;2.55;;;;;;;;;;4975322;28;20134;-77
2023/03/14 06:16:55;;;;;;;10.35;2.50;;;;;;;;;;4975334;28;20050;-76
2023/03/14 06:19:21;;;;;;;11.95;2.45;;;;;;;;;;4989939;28;20115;-76
2023/03/14 06:21:47;;;;;;;10.60;1.80;;;;;;;;;;4975822;28;20051;-76
2023/03/14 06:24:13;;;;;;;9.13;2.28;;;;;;;;;;4989553;28;20055;-76
2023/03/14 06:26:39;;;;;;;10.05;2.55;;;;;;;;;;4974498;28;20130;-76
2023/03/14 06:29:05;;;;;;;3.33;1.70;;;;;;;;;;4975692;28;20186;-76
2023/03/14 06:31:35;;;;;;;5.97;2.03;;;;;;;;;;4975639;28;20051;-76
2023/03/14 06:34:01;;;;;;;6.75;2.20;;;;;;;;;;4974269;28;20125;-76
2023/03/14 06:36:27;;;;;;;6.43;1.83;;;;;;;;;;5006159;28;20055;-76
2023/03/14 06:38:53;;;;;;;3.45;1.30;;;;;;;;;;4974110;28;20043;-76
2023/03/14 06:41:19;;;;;;;5.43;1.55;;;;;;;;;;4973978;28;20062;-77
2023/03/14 06:43:45;;;;;;;4.22;1.90;;;;;;;;;;4974671;28;20050;-77
2023/03/14 06:46:11;;;;;;;5.80;1.73;;;;;;;;;;4974033;28;20075;-77
2023/03/14 06:48:37;;;;;;;5.22;2.10;;;;;;;;;;4975123;28;20043;-77
2023/03/14 06:51:03;;;;;;;3.53;1.30;;;;;;;;;;4970673;28;20050;-76
2023/03/14 06:53:29;;;;;;;6.97;1.77;;;;;;;;;;4974315;28;20187;-76
2023/03/14 06:55:55;;;;;;;6.55;1.50;;;;;;;;;;4974615;28;20522;-76
2023/03/14 06:58:21;;;;;;;2.75;1.30;;;;;;;;;;4975090;28;20093;-76
2023/03/14 07:00:47;;;;;;;3.78;1.60;;;;;;;;;;4973600;28;20086;-76
2023/03/14 07:03:14;;;;;;;3.88;1.40;;;;;;;;;;4973828;28;20059;-77
2023/03/14 07:05:41;;;;;;;3.28;1.48;;;;;;;;;;4974995;28;20560;-81
2023/03/14 07:08:07;;;;;;;6.47;1.80;;;;;;;;;;4989975;28;20074;-77
2023/03/14 07:10:33;;;;;;;5.63;1.98;;;;;;;;;;4975592;28;20066;-83
2023/03/14 07:13:00;;;;;;;3.15;1.63;;;;;;;;;;4978785;28;20386;-77
2023/03/14 07:15:26;;;;;;;5.03;1.85;;;;;;;;;;4974510;28;20053;-77
2023/03/14 07:17:52;;;;;;;7.03;1.88;;;;;;;;;;4974462;28;20049;-77
2023/03/14 07:20:18;;;;;;;3.83;1.60;;;;;;;;;;4974641;28;20066;-77
2023/03/14 07:22:44;;;;;;;4.85;1.77;;;;;;;;;;4974588;28;20062;-77
2023/03/14 07:25:11;;;;;;;5.70;1.80;;;;;;;;;;4974619;28;20154;-77
2023/03/14 07:27:38;;;;;;;8.88;2.58;;;;;;;;;;4974487;28;20054;-77
2023/03/14 07:30:04;;;;;;;6.90;1.88;;;;;;;;;;4974471;28;20096;-77
2023/03/14 07:32:30;;;;;;;3.55;1.58;;;;;;;;;;4957797;28;20122;-77
2023/03/14 07:34:56;;;;;;;6.13;1.70;;;;;;;;;;4974255;28;20543;-78
2023/03/14 07:37:22;;;;;;;7.03;2.00;;;;;;;;;;4961639;28;20046;-78
2023/03/14 07:39:48;;;;;;;4.45;1.83;;;;;;;;;;4977361;28;20051;-78
2023/03/14 07:42:14;;;;;;;8.95;1.85;;;;;;;;;;4977010;28;20050;-78
2023/03/14 07:44:40;;;;;;;5.43;2.00;;;;;;;;;;4981470;28;20133;-79
2023/03/14 07:47:06;;;;;;;4.35;1.73;;;;;;;;;;4971094;28;20043;-79
2023/03/14 07:49:32;;;;;;;10.27;2.17;;;;;;;;;;4975232;28;20123;-79
2023/03/14 07:51:58;;;;;;;12.88;2.90;;;;;;;;;;4982715;28;20127;-79
2023/03/14 07:54:25;;;;;;;5.85;2.13;;;;;;;;;;4981005;28;20074;-79
2023/03/14 07:56:51;;;;;;;9.00;2.53;;;;;;;;;;4977428;28;20397;-79
2023/03/14 07:59:18;;;;;;;12.60;2.45;;;;;;;;;;4981890;28;20045;-79
2023/03/14 08:01:44;;;;;;;8.25;2.22;;;;;;;;;;4981705;28;20632;-79
2023/03/14 08:04:11;;;;;;;11.63;2.95;;;;;;;;;;4981227;28;20069;-79
2023/03/14 08:06:37;;;;;;;13.32;3.25;;;;;;;;;;4982919;28;20058;-79
2023/03/14 08:09:04;;;;;;;19.90;3.20;;;;;;;;;;4982835;28;20051;-79
2023/03/14 08:11:30;;;;;;;12.43;3.20;;;;;;;;;;4981806;28;20050;-79
2023/03/14 08:13:56;;;;;;;6.65;2.25;;;;;;;;;;4982224;28;20520;-79
2023/03/14 08:16:22;;;;;;;10.82;3.13;;;;;;;;;;4996579;28;20047;-79
2023/03/14 08:18:48;;;;;;;12.50;3.33;;;;;;;;;;4980975;28;20046;-79
2023/03/14 08:21:15;;;;;;;15.43;3.03;;;;;;;;;;4980521;28;20502;-78
2023/03/14 08:23:41;;;;;;;12.10;2.80;;;;;;;;;;4980848;28;20038;-78
2023/03/14 08:26:07;;;;;;;9.20;2.97;;;;;;;;;;4974351;28;20508;-78
2023/03/14 08:28:33;;;;;;;12.73;3.13;;;;;;;;;;4961858;28;20039;-82
2023/03/14 08:31:00;;;;;;;14.32;3.50;;;;;;;;;;4961568;28;20043;-79
2023/03/14 08:33:27;;;;;;;14.75;2.90;;;;;;;;;;4976078;28;20054;-79
2023/03/14 08:35:53;;;;;;;16.15;3.72;;;;;;;;;;4998830;28;20074;-82
2023/03/14 08:38:19;;;;;;;21.55;3.50;;;;;;;;;;4997433;28;20486;-79
2023/03/14 08:40:45;;;;;;;12.68;3.28;;;;;;;;;;4981274;28;20053;-79
2023/03/14 08:43:11;;;;;;;16.13;3.55;;;;;;;;;;4980857;28;20042;-79
2023/03/14 08:45:38;;;;;;;16.17;3.60;;;;;;;;;;4979445;28;20125;-79
2023/03/14 08:48:04;;;;;;;12.68;3.35;;;;;;;;;;4977273;28;20422;-78
2023/03/14 08:50:30;;;;;;;17.60;4.20;;;;;;;;;;4977511;28;20102;-79
2023/03/14 08:52:59;;;;;;;15.55;4.38;;;;;;;;;;4977602;28;20058;-78
2023/03/14 08:55:27;;;;;;;16.45;3.60;;;;;;;;;;4977099;28;20468;-78
2023/03/14 08:57:53;;;;;;;16.13;4.95;;;;;;;;;;4977882;28;20055;-78
2023/03/14 09:00:19;;;;;;;12.05;3.42;;;;;;;;;;4971756;28;20121;-78
2023/03/14 09:02:45;;;;;;;14.30;3.10;;;;;;;;;;4971748;28;20047;-78
2023/03/14 09:05:12;;;;;;;21.25;4.25;;;;;;;;;;4973183;28;20137;-78
2023/03/14 09:07:38;;;;;;;11.98;2.92;;;;;;;;;;4975472;28;20442;-78
2023/03/14 09:10:04;;;;;;;13.85;2.97;;;;;;;;;;4977815;28;20051;-78
2023/03/14 09:12:30;;;;;;;16.15;3.90;;;;;;;;;;4978797;28;20073;-78
2023/03/14 09:14:56;;;;;;;16.33;4.18;;;;;;;;;;4972999;28;20054;-78
2023/03/14 09:17:22;;;;;;;16.95;3.25;;;;;;;;;;4977369;28;20120;-78
2023/03/14 09:19:49;;;;;;;9.00;2.90;;;;;;;;;;4977503;28;20498;-78
2023/03/14 09:22:15;;;;;;;12.02;3.10;;;;;;;;;;4976205;28;20514;-78
2023/03/14 09:24:41;;;;;;;13.57;3.63;;;;;;;;;;4977247;28;20489;-78
2023/03/14 09:27:07;;;;;;;10.38;3.13;;;;;;;;;;4977395;28;20256;-78
2023/03/14 09:29:33;;;;;;;17.38;3.53;;;;;;;;;;4977572;28;20043;-78
2023/03/14 09:32:00;;;;;;;13.88;3.85;;;;;;;;;;4977352;28;20177;-78
2023/03/14 09:34:26;;;;;;;13.57;3.80;;;;;;;;;;4981914;28;20049;-78
2023/03/14 09:36:53;;;;;;;17.50;4.03;;;;;;;;;;4981334;28;20035;-78
2023/03/14 09:39:19;;;;;;;16.95;3.38;;;;;;;;;;4978807;28;20055;-78
2023/03/14 09:41:47;;;;;;;13.50;3.40;;;;;;;;;;4977200;28;20474;-77
2023/03/14 09:44:12;;;;;;;9.80;3.00;;;;;;;;;;4975162;28;20494;-77
2023/03/14 09:46:39;;;;;;;17.40;3.65;;;;;;;;;;4975976;28;20051;-78
2023/03/14 09:49:11;;;;;;;10.73;2.72;;;;;;;;;;4976124;28;20038;-78
2023/03/14 09:51:37;;;;;;;10.05;2.80;;;;;;;;;;4975691;28;20101;-78
2023/03/14 09:54:05;;;;;;;10.90;2.88;;;;;;;;;;4975898;28;20046;-78
2023/03/14 09:56:32;;;;;;;14.50;3.65;;;;;;;;;;4990402;28;20086;-78
2023/03/14 09:59:00;;;;;;;14.88;3.03;;;;;;;;;;4974379;28;20058;-77
2023/03/14 10:01:31;;;;;;;8.90;2.50;;;;;;;;;;4975536;28;20517;-77
2023/03/14 10:03:58;;;;;;;11.45;2.83;;;;;;;;;;4975827;28;20055;-78
2023/03/14 10:06:26;;;;;;;11.40;2.47;;;;;;;;;;5007115;28;20413;-78
2023/03/14 10:08:52;;;;;;;7.20;2.30;;;;;;;;;;4976860;28;20051;-77
2023/03/14 10:11:19;;;;;;;11.13;2.20;;;;;;;;;;4992626;28;20130;-78
2023/03/14 10:14:06;;;;;;;10.98;2.63;;;;;;;;;;4970491;28;20125;-78
2023/03/14 10:16:32;;;;;;;;;;;;;;;;;;4957258;28;20043;-77
2023/03/14 10:19:06;;;;;;;10.47;2.93;;;;;;;;;;4956121;28;19941;-78
2023/03/14 10:21:36;;;;;;;5.88;2.03;;;;;;;;;;4954903;29;21032;-78
2023/03/14 10:24:09;;;;;;;5.35;1.90;;;;;;;;;;4956338;28;20062;-78
2023/03/14 10:26:35;;;;;;;6.88;2.20;;;;;;;;;;4973976;28;20170;-76
2023/03/14 10:29:03;;;;;;;6.57;2.05;;;;;;;;;;4973277;28;20098;-78
2023/03/14 10:31:46;;;;;;;10.70;2.35;;;;;;;;;;4975363;28;20047;-78
2023/03/14 10:34:15;;;;;;;10.32;2.33;;;;;;;;;;4975373;28;20057;-78
2023/03/14 10:36:42;;;;;;;7.30;2.30;;;;;;;;;;4975000;28;20082;-78
2023/03/14 10:39:17;;;;;;;10.68;2.88;;;;;;;;;;4974489;28;20192;-78
2023/03/14 10:41:47;;;;;;;5.50;1.73;;;;;;;;;;4973349;28;20050;-78
2023/03/14 10:44:13;;;;;;;6.35;2.08;;;;;;;;;;4975365;28;20070;-78
2023/03/14 10:46:39;;;;;;;6.70;1.83;;;;;;;;;;4975336;28;20058;-78
2023/03/14 10:49:06;;;;;;;5.78;2.30;;;;;;;;;;4973008;28;21377;-78
2023/03/14 10:51:32;;;;;;;7.40;2.00;;;;;;;;;;4967853;28;20548;-77
2023/03/14 10:53:58;;;;;;;5.15;1.60;;;;;;;;;;4976240;28;20049;-78
2023/03/14 10:56:25;;;;;;;5.15;2.05;;;;;;;;;;4975330;28;20109;-79
2023/03/14 10:58:55;;;;;;;8.38;2.60;;;;;;;;;;4977024;28;20089;-78
2023/03/14 11:01:30;;;;;;;5.15;2.20;;;;;;;;;;4978409;28;20051;-79
2023/03/14 11:04:09;;;;;;;6.07;2.20;;;;;;;;;;4979394;28;20455;-79
2023/03/14 11:06:45;;;;;;;7.72;2.45;;;;;;;;;;4977325;28;20051;-79
2023/03/14 11:09:23;;;;;;;5.77;2.13;;;;;;;;;;4977524;28;20070;-79
2023/03/14 11:11:49;;;;;;;4.05;1.90;;;;;;;;;;4976415;28;20057;-79
2023/03/14 11:14:29;;;;;;;4.03;1.40;;;;;;;;;;4978176;28;20429;-79
2023/03/14 11:17:05;;;;;;;6.07;2.22;;;;;;;;;;5007739;28;20047;-79
2023/03/14 11:19:50;;;;;;;8.60;2.22;;;;;;;;;;4976347;28;20063;-78
2023/03/14 11:22:22;;;;;;;5.18;2.25;;;;;;;;;;4971841;28;20527;-78
2023/03/14 11:24:57;;;;;;;4.72;1.95;;;;;;;;;;5006163;28;20144;-77
2023/03/14 11:27:28;;;;;;;6.43;1.93;;;;;;;;;;4975021;28;20046;-78
2023/03/14 11:29:56;;;;;;;5.05;1.70;;;;;;;;;;4974313;28;20501;-77
2023/03/14 11:32:36;;;;;;;8.18;2.38;;;;;;;;;;4974776;28;20054;-78
2023/03/14 11:35:04;;;;;;;5.78;1.73;;;;;;;;;;4994990;28;20050;-78
2023/03/14 11:37:52;;;;;;;7.97;1.90;;;;;;;;;;4974817;28;20118;-78
2023/03/14 11:40:20;;;;;;;6.55;2.00;;;;;;;;;;4974494;28;20162;-78
2023/03/14 11:42:48;;;;;;;9.63;2.22;;;;;;;;;;4975277;28;20121;-79
2023/03/14 11:45:17;;;;;;;5.47;1.85;;;;;;;;;;4963383;28;20059;-77
2023/03/14 11:47:45;;;;;;;4.63;1.75;;;;;;;;;;4972822;28;20469;-77
2023/03/14 11:50:19;;;;;;;7.80;2.25;;;;;;;;;;4974295;28;20058;-78
2023/03/14 11:52:56;;;;;;;5.95;1.80;;;;;;;;;;4973509;28;20053;-78
2023/03/14 11:55:27;;;;;;;6.05;2.20;;;;;;;;;;4974569;28;20118;-77
2023/03/14 11:57:55;;;;;;;4.72;1.98;;;;;;;;;;4974466;28;20043;-77
2023/03/14 12:00:23;;;;;;;4.05;1.98;;;;;;;;;;4974375;28;20054;-78
2023/03/14 12:02:54;;;;;;;8.30;2.28;;;;;;;;;;4962869;28;20086;-77
2023/03/14 12:05:26;;;;;;;6.85;1.90;;;;;;;;;;4964172;28;20042;-77
2023/03/14 12:08:16;;;;;;;9.90;2.20;;;;;;;;;;5006131;28;20046;-77
2023/03/14 12:10:46;;;;;;;8.40;2.55;;;;;;;;;;4973880;28;20409;-78
2023/03/14 12:13:14;;;;;;;8.27;2.05;;;;;;;;;;4974592;28;20046;-77
2023/03/14 12:15:43;;;;;;;7.38;2.47;;;;;;;;;;4974525;28;20043;-77
2023/03/14 12:18:26;;;;;;;4.10;2.05;;;;;;;;;;4979054;28;20121;-77
2023/03/14 12:21:03;;;;;;;7.88;2.15;;;;;;;;;;4979864;28;20070;-77
2023/03/14 12:23:29;;;;;;;;;;;;;;;;;;4978208;28;20059;-77
2023/03/14 12:26:13;;;;;;;8.87;2.57;;;;;;;;;;4977926;28;19926;-77
2023/03/14 12:28:42;;;;;;;4.70;1.60;;;;;;;;;;4958922;28;20827;-78
2023/03/14 12:31:26;;;;;;;10.40;2.33;;;;;;;;;;4972991;28;20050;-77
2023/03/14 12:34:03;;;;;;;7.70;2.10;;;;;;;;;;4977663;28;20462;-78
2023/03/14 12:36:50;;;;;;;5.72;2.03;;;;;;;;;;4959422;28;20051;-77
2023/03/14 12:39:35;;;;;;;6.00;2.08;;;;;;;;;;4975070;28;20077;-77
2023/03/14 12:42:05;;;;;;;5.72;2.17;;;;;;;;;;5008571;28;20405;-78
2023/03/14 12:44:31;;;;;;;4.50;2.15;;;;;;;;;;4977985;28;20050;-77
2023/03/14 12:46:57;;;;;;;4.00;1.98;;;;;;;;;;4977607;28;20049;-77
2023/03/14 12:49:30;;;;;;;3.42;1.75;;;;;;;;;;4977672;28;20069;-77
2023/03/14 12:52:00;;;;;;;5.47;1.92;;;;;;;;;;4975685;28;20568;-77
2023/03/14 12:54:44;;;;;;;7.68;2.00;;;;;;;;;;4978151;28;20049;-77
2023/03/14 12:57:11;;;;;;;7.93;2.40;;;;;;;;;;4977309;28;20074;-77
2023/03/14 12:59:37;;;;;;;6.10;2.13;;;;;;;;;;4978088;28;20046;-77
2023/03/14 13:02:08;;;;;;;6.82;1.90;;;;;;;;;;4977114;28;20047;-77
2023/03/14 13:04:36;;;;;;;7.85;2.33;;;;;;;;;;4977460;28;20065;-77
2023/03/14 13:07:03;;;;;;;6.38;1.50;;;;;;;;;;4975626;28;20453;-77
2023/03/14 13:09:30;;;;;;;5.47;2.30;;;;;;;;;;4976980;28;20046;-77
2023/03/14 13:11:57;;;;;;;7.40;1.95;;;;;;;;;;4976669;28;20408;-77
2023/03/14 13:14:23;;;;;;;5.90;2.10;;;;;;;;;;4977255;28;20074;-77
2023/03/14 13:16:50;;;;;;;4.18;2.00;;;;;;;;;;4977049;28;20409;-77
2023/03/14 13:19:27;;;;;;;7.75;2.15;;;;;;;;;;4976449;28;20086;-77
2023/03/14 13:21:57;;;;;;;2.47;1.58;;;;;;;;;;4971927;28;20051;-77
2023/03/14 13:24:26;;;;;;;3.67;1.67;;;;;;;;;;4957584;28;20450;-77
2023/03/14 13:26:56;;;;;;;8.00;2.03;;;;;;;;;;4971514;28;20043;-77
2023/03/14 13:29:24;;;;;;;3.22;2.13;;;;;;;;;;4976865;28;20082;-77
2023/03/14 13:31:51;;;;;;;6.55;1.90;;;;;;;;;;4976502;28;20043;-78
2023/03/14 13:34:18;;;;;;;4.68;1.90;;;;;;;;;;4977361;28;20055;-77
2023/03/14 13:36:44;;;;;;;12.98;2.20;;;;;;;;;;4976182;28;20053;-77
2023/03/14 13:39:12;;;;;;;5.55;1.95;;;;;;;;;;4959448;28;20105;-77
2023/03/14 13:41:39;;;;;;;4.95;2.05;;;;;;;;;;4975062;28;20089;-77
2023/03/14 13:44:09;;;;;;;5.45;2.22;;;;;;;;;;4976495;28;20055;-77
2023/03/14 13:46:36;;;;;;;8.15;1.92;;;;;;;;;;4976868;28;20078;-77
2023/03/14 13:49:04;;;;;;;6.00;1.65;;;;;;;;;;4976362;28;20624;-77
2023/03/14 13:51:39;;;;;;;7.35;2.78;;;;;;;;;;4974944;28;20465;-77
2023/03/14 13:54:16;;;;;;;6.57;2.22;;;;;;;;;;4976891;28;20047;-77
2023/03/14 13:56:42;;;;;;;6.80;2.55;;;;;;;;;;4976629;28;20374;-77
2023/03/14 13:59:36;;;;;;;8.07;2.28;;;;;;;;;;4976684;28;20493;-77
2023/03/14 14:02:21;;;;;;;6.15;2.05;;;;;;;;;;4976690;28;20037;-79
2023/03/14 14:04:48;;;;;;;6.90;2.13;;;;;;;;;;4993759;28;20049;-77
2023/03/14 14:07:18;;;;;;;7.07;1.90;;;;;;;;;;4974233;28;20047;-77
2023/03/14 14:09:48;;;;;;;5.65;2.00;;;;;;;;;;4975983;28;20051;-77
2023/03/14 14:12:14;;;;;;;7.60;1.90;;;;;;;;;;4975822;28;20492;-77
2023/03/14 14:14:49;;;;;;;5.35;1.98;;;;;;;;;;4975923;28;20043;-77
2023/03/14 14:17:24;;;;;;;6.03;2.03;;;;;;;;;;4975524;28;20050;-77
2023/03/14 14:19:51;;;;;;;6.20;1.73;;;;;;;;;;4956530;28;20051;-77
2023/03/14 14:22:17;;;;;;;10.90;2.05;;;;;;;;;;4956335;29;20549;-77
2023/03/14 14:24:43;;;;;;;5.00;1.63;;;;;;;;;;4950620;28;20512;-77
2023/03/14 14:27:14;;;;;;;5.90;2.20;;;;;;;;;;4974576;28;20062;-76
2023/03/14 14:29:40;;;;;;;8.35;2.50;;;;;;;;;;4975842;28;20041;-77
2023/03/14 14:32:09;;;;;;;6.90;2.17;;;;;;;;;;4975586;28;20039;-77
2023/03/14 14:34:40;;;;;;;6.47;2.65;;;;;;;;;;4975150;28;20497;-77
2023/03/14 14:37:17;;;;;;;7.38;1.60;;;;;;;;;;4990072;28;20115;-76
2023/03/14 14:39:43;;;;;;;8.73;2.55;;;;;;;;;;4990997;28;20477;-77
2023/03/14 14:42:16;;;;;;;10.68;2.85;;;;;;;;;;4974402;28;20051;-77